sensor_id;sensor_type;location;lat;lon;timestamp;pressure;altitude;pressure_sealevel;temperature;humidity
62436;BME280;48480;50.252;18.848;2022-12-29T00:01:47;98717.23;;;3.21;63.23
62436;BME280;48480;50.252;18.848;2022-12-29T00:04:14;98708.95;;;3.17;63.43
62436;BME280;48480;50.252;18.848;2022-12-29T00:06:40;98706.27;;;3.09;63.68
62436;BME280;48480;50.252;18.848;2022-12-29T00:09:05;98702.00;;;3.02;63.76
62436;BME280;48480;50.252;18.848;2022-12-29T00:11:31;98700.98;;;2.98;64.05
62436;BME280;48480;50.252;18.848;2022-12-29T00:13:56;98698.64;;;2.94;64.17
62436;BME280;48480;50.252;18.848;2022-12-29T00:16:45;98697.92;;;2.91;64.40
62436;BME280;48480;50.252;18.848;2022-12-29T00:19:11;98694.41;;;2.83;64.49
62436;BME280;48480;50.252;18.848;2022-12-29T00:21:56;98701.63;;;2.88;64.63
62436;BME280;48480;50.252;18.848;2022-12-29T00:24:41;98693.51;;;2.86;64.77
62436;BME280;48480;50.252;18.848;2022-12-29T00:27:19;98691.02;;;2.86;64.86
62436;BME280;48480;50.252;18.848;2022-12-29T00:30:17;98681.20;;;2.83;64.92
62436;BME280;48480;50.252;18.848;2022-12-29T00:33:13;98681.37;;;2.83;65.04
62436;BME280;48480;50.252;18.848;2022-12-29T00:36:04;98678.81;;;2.83;64.97
62436;BME280;48480;50.252;18.848;2022-12-29T00:38:32;98679.30;;;2.83;65.20
62436;BME280;48480;50.252;18.848;2022-12-29T00:41:19;98670.29;;;2.84;65.11
62436;BME280;48480;50.252;18.848;2022-12-29T00:44:03;98658.85;;;2.86;65.15
62436;BME280;48480;50.252;18.848;2022-12-29T00:46:39;98661.35;;;2.90;65.26
62436;BME280;48480;50.252;18.848;2022-12-29T00:49:06;98657.13;;;2.91;65.26
62436;BME280;48480;50.252;18.848;2022-12-29T00:51:51;98659.89;;;2.91;65.22
62436;BME280;48480;50.252;18.848;2022-12-29T00:54:17;98664.55;;;2.94;65.28
62436;BME280;48480;50.252;18.848;2022-12-29T00:56:43;98652.45;;;2.90;65.26
62436;BME280;48480;50.252;18.848;2022-12-29T00:59:10;98654.81;;;2.98;65.18
62436;BME280;48480;50.252;18.848;2022-12-29T01:01:37;98653.22;;;2.98;65.09
62436;BME280;48480;50.252;18.848;2022-12-29T01:04:04;98651.37;;;2.99;65.00
62436;BME280;48480;50.252;18.848;2022-12-29T01:06:31;98659.44;;;3.00;65.14
62436;BME280;48480;50.252;18.848;2022-12-29T01:08:57;98663.36;;;3.02;65.01
62436;BME280;48480;50.252;18.848;2022-12-29T01:11:41;98669.04;;;3.07;65.06
62436;BME280;48480;50.252;18.848;2022-12-29T01:14:06;98669.48;;;3.12;65.13
62436;BME280;48480;50.252;18.848;2022-12-29T01:16:32;98668.45;;;3.17;65.13
62436;BME280;48480;50.252;18.848;2022-12-29T01:18:58;98674.28;;;3.23;65.05
62436;BME280;48480;50.252;18.848;2022-12-29T01:21:24;98672.06;;;3.27;64.81
62436;BME280;48480;50.252;18.848;2022-12-29T01:23:50;98667.14;;;3.26;64.76
62436;BME280;48480;50.252;18.848;2022-12-29T01:26:16;98666.23;;;3.26;64.78
62436;BME280;48480;50.252;18.848;2022-12-29T01:28:43;98673.96;;;3.25;64.85
62436;BME280;48480;50.252;18.848;2022-12-29T01:31:09;98682.13;;;3.25;64.90
62436;BME280;48480;50.252;18.848;2022-12-29T01:33:35;98670.95;;;3.25;64.89
62436;BME280;48480;50.252;18.848;2022-12-29T01:36:02;98668.23;;;3.25;64.93
62436;BME280;48480;50.252;18.848;2022-12-29T01:38:27;98666.45;;;3.25;65.02
62436;BME280;48480;50.252;18.848;2022-12-29T01:40:53;98670.95;;;3.24;65.04
62436;BME280;48480;50.252;18.848;2022-12-29T01:43:18;98676.66;;;3.22;65.15
62436;BME280;48480;50.252;18.848;2022-12-29T01:45:48;98671.52;;;3.23;65.16
62436;BME280;48480;50.252;18.848;2022-12-29T01:48:16;98669.56;;;3.24;65.02
62436;BME280;48480;50.252;18.848;2022-12-29T01:50:52;98668.58;;;3.25;65.11
62436;BME280;48480;50.252;18.848;2022-12-29T01:53:28;98669.84;;;3.27;65.18
62436;BME280;48480;50.252;18.848;2022-12-29T01:56:00;98669.80;;;3.32;64.95
62436;BME280;48480;50.252;18.848;2022-12-29T01:58:30;98661.42;;;3.35;65.00
62436;BME280;48480;50.252;18.848;2022-12-29T02:00:57;98655.86;;;3.37;65.01
62436;BME280;48480;50.252;18.848;2022-12-29T02:03:25;98650.89;;;3.39;64.91
62436;BME280;48480;50.252;18.848;2022-12-29T02:08:29;98626.59;;;3.45;64.89
62436;BME280;48480;50.252;18.848;2022-12-29T02:10:56;98621.50;;;3.49;64.90
62436;BME280;48480;50.252;18.848;2022-12-29T02:13:27;98621.34;;;3.51;64.83
62436;BME280;48480;50.252;18.848;2022-12-29T02:26:39;98636.58;;;3.64;64.52
62436;BME280;48480;50.252;18.848;2022-12-29T02:29:27;98640.23;;;3.64;64.47
62436;BME280;48480;50.252;18.848;2022-12-29T02:32:08;98633.71;;;3.64;64.43
62436;BME280;48480;50.252;18.848;2022-12-29T02:35:23;98630.73;;;3.62;64.51
62436;BME280;48480;50.252;18.848;2022-12-29T02:37:42;98630.06;;;3.70;64.40
62436;BME280;48480;50.252;18.848;2022-12-29T02:42:51;98625.54;;;3.73;64.29
62436;BME280;48480;50.252;18.848;2022-12-29T02:48:25;98625.59;;;3.72;64.26
62436;BME280;48480;50.252;18.848;2022-12-29T02:51:02;98625.38;;;3.69;63.96
62436;BME280;48480;50.252;18.848;2022-12-29T02:53:29;98618.96;;;3.66;63.83
62436;BME280;48480;50.252;18.848;2022-12-29T02:56:14;98615.46;;;3.62;64.04
62436;BME280;48480;50.252;18.848;2022-12-29T02:58:40;98614.77;;;3.60;63.98
62436;BME280;48480;50.252;18.848;2022-12-29T03:06:35;98593.60;;;3.48;64.38
62436;BME280;48480;50.252;18.848;2022-12-29T03:09:36;98599.55;;;3.46;64.41
62436;BME280;48480;50.252;18.848;2022-12-29T03:15:01;98606.55;;;3.42;64.73
62436;BME280;48480;50.252;18.848;2022-12-29T03:17:55;98605.64;;;3.41;64.78
62436;BME280;48480;50.252;18.848;2022-12-29T03:20:49;98600.13;;;3.42;64.74
62436;BME280;48480;50.252;18.848;2022-12-29T03:23:18;98602.08;;;3.43;64.68
62436;BME280;48480;50.252;18.848;2022-12-29T03:25:47;98604.84;;;3.43;64.70
62436;BME280;48480;50.252;18.848;2022-12-29T03:28:37;98606.64;;;3.45;64.59
62436;BME280;48480;50.252;18.848;2022-12-29T03:31:04;98596.31;;;3.48;64.65
62436;BME280;48480;50.252;18.848;2022-12-29T03:33:35;98596.36;;;3.48;64.74
62436;BME280;48480;50.252;18.848;2022-12-29T03:36:05;98600.50;;;3.48;64.74
62436;BME280;48480;50.252;18.848;2022-12-29T03:38:42;98601.13;;;3.45;64.77
62436;BME280;48480;50.252;18.848;2022-12-29T03:41:11;98595.41;;;3.46;64.65
62436;BME280;48480;50.252;18.848;2022-12-29T03:43:38;98595.57;;;3.46;64.65
62436;BME280;48480;50.252;18.848;2022-12-29T03:46:04;98603.48;;;3.45;64.79
62436;BME280;48480;50.252;18.848;2022-12-29T03:48:29;98587.34;;;3.46;64.80
62436;BME280;48480;50.252;18.848;2022-12-29T03:50:54;98571.80;;;3.45;64.69
62436;BME280;48480;50.252;18.848;2022-12-29T03:53:20;98561.15;;;3.44;64.68
62436;BME280;48480;50.252;18.848;2022-12-29T03:55:46;98557.11;;;3.43;64.63
62436;BME280;48480;50.252;18.848;2022-12-29T03:58:11;98560.88;;;3.43;64.54
62436;BME280;48480;50.252;18.848;2022-12-29T04:00:37;98559.50;;;3.43;64.54
62436;BME280;48480;50.252;18.848;2022-12-29T04:03:03;98558.33;;;3.43;64.58
62436;BME280;48480;50.252;18.848;2022-12-29T04:05:28;98542.64;;;3.41;64.46
62436;BME280;48480;50.252;18.848;2022-12-29T04:07:54;98543.48;;;3.41;64.63
62436;BME280;48480;50.252;18.848;2022-12-29T04:10:19;98540.93;;;3.40;64.68
62436;BME280;48480;50.252;18.848;2022-12-29T04:12:44;98544.12;;;3.37;64.79
62436;BME280;48480;50.252;18.848;2022-12-29T04:15:12;98550.74;;;3.33;65.07
62436;BME280;48480;50.252;18.848;2022-12-29T04:17:37;98545.76;;;3.30;65.16
62436;BME280;48480;50.252;18.848;2022-12-29T04:20:03;98551.64;;;3.31;65.12
62436;BME280;48480;50.252;18.848;2022-12-29T04:22:48;98549.16;;;3.31;65.41
62436;BME280;48480;50.252;18.848;2022-12-29T04:25:13;98549.63;;;3.30;65.51
62436;BME280;48480;50.252;18.848;2022-12-29T04:27:39;98547.83;;;3.31;65.59
62436;BME280;48480;50.252;18.848;2022-12-29T04:30:05;98548.67;;;3.30;65.74
62436;BME280;48480;50.252;18.848;2022-12-29T04:32:30;98542.00;;;3.30;65.78
62436;BME280;48480;50.252;18.848;2022-12-29T04:34:55;98541.25;;;3.31;65.65
62436;BME280;48480;50.252;18.848;2022-12-29T04:37:21;98532.66;;;3.34;65.66
62436;BME280;48480;50.252;18.848;2022-12-29T04:39:47;98529.38;;;3.37;65.51
62436;BME280;48480;50.252;18.848;2022-12-29T04:42:13;98531.60;;;3.39;65.51
62436;BME280;48480;50.252;18.848;2022-12-29T04:44:39;98527.20;;;3.36;65.54
62436;BME280;48480;50.252;18.848;2022-12-29T04:47:05;98532.66;;;3.34;65.52
62436;BME280;48480;50.252;18.848;2022-12-29T04:49:30;98530.70;;;3.34;65.58
62436;BME280;48480;50.252;18.848;2022-12-29T04:51:55;98530.54;;;3.34;65.65
62436;BME280;48480;50.252;18.848;2022-12-29T04:54:21;98527.52;;;3.34;65.58
62436;BME280;48480;50.252;18.848;2022-12-29T04:56:46;98527.94;;;3.34;65.64
62436;BME280;48480;50.252;18.848;2022-12-29T04:59:12;98530.86;;;3.36;65.66
62436;BME280;48480;50.252;18.848;2022-12-29T05:01:37;98525.14;;;3.36;65.59
62436;BME280;48480;50.252;18.848;2022-12-29T05:04:03;98519.67;;;3.35;65.60
62436;BME280;48480;50.252;18.848;2022-12-29T05:06:28;98513.52;;;3.35;65.68
62436;BME280;48480;50.252;18.848;2022-12-29T05:08:54;98511.88;;;3.34;65.81
62436;BME280;48480;50.252;18.848;2022-12-29T05:11:19;98514.15;;;3.35;65.76
62436;BME280;48480;50.252;18.848;2022-12-29T05:13:45;98526.52;;;3.36;65.69
62436;BME280;48480;50.252;18.848;2022-12-29T05:16:12;98530.23;;;3.35;65.91
62436;BME280;48480;50.252;18.848;2022-12-29T05:18:37;98532.61;;;3.33;65.88
62436;BME280;48480;50.252;18.848;2022-12-29T05:21:03;98532.03;;;3.32;65.93
62436;BME280;48480;50.252;18.848;2022-12-29T05:23:28;98535.48;;;3.34;65.95
62436;BME280;48480;50.252;18.848;2022-12-29T05:25:53;98533.30;;;3.34;65.92
62436;BME280;48480;50.252;18.848;2022-12-29T05:28:19;98529.05;;;3.34;65.99
62436;BME280;48480;50.252;18.848;2022-12-29T05:30:48;98525.92;;;3.32;65.98
62436;BME280;48480;50.252;18.848;2022-12-29T05:33:13;98522.17;;;3.28;66.12
62436;BME280;48480;50.252;18.848;2022-12-29T05:35:39;98510.02;;;3.25;66.20
62436;BME280;48480;50.252;18.848;2022-12-29T05:38:04;98513.46;;;3.23;66.22
62436;BME280;48480;50.252;18.848;2022-12-29T05:40:29;98520.84;;;3.21;66.33
62436;BME280;48480;50.252;18.848;2022-12-29T05:42:55;98522.23;;;3.19;66.42
62436;BME280;48480;50.252;18.848;2022-12-29T05:45:20;98515.54;;;3.17;66.56
62436;BME280;48480;50.252;18.848;2022-12-29T05:47:45;98511.51;;;3.19;66.41
62436;BME280;48480;50.252;18.848;2022-12-29T05:50:11;98518.41;;;3.21;66.57
62436;BME280;48480;50.252;18.848;2022-12-29T05:52:36;98522.80;;;3.21;66.56
62436;BME280;48480;50.252;18.848;2022-12-29T05:55:01;98520.36;;;3.21;66.72
62436;BME280;48480;50.252;18.848;2022-12-29T05:57:27;98517.44;;;3.24;66.75
62436;BME280;48480;50.252;18.848;2022-12-29T05:59:52;98519.02;;;3.27;66.80
62436;BME280;48480;50.252;18.848;2022-12-29T06:02:18;98517.08;;;3.29;66.83
62436;BME280;48480;50.252;18.848;2022-12-29T06:04:43;98514.52;;;3.32;66.80
62436;BME280;48480;50.252;18.848;2022-12-29T06:07:08;98509.23;;;3.36;66.78
62436;BME280;48480;50.252;18.848;2022-12-29T06:09:34;98502.37;;;3.40;66.74
62436;BME280;48480;50.252;18.848;2022-12-29T06:11:59;98499.79;;;3.42;66.73
62436;BME280;48480;50.252;18.848;2022-12-29T06:14:25;98501.05;;;3.43;66.89
62436;BME280;48480;50.252;18.848;2022-12-29T06:16:50;98495.58;;;3.47;66.78
62436;BME280;48480;50.252;18.848;2022-12-29T06:19:15;98494.69;;;3.49;66.75
62436;BME280;48480;50.252;18.848;2022-12-29T06:21:41;98493.03;;;3.51;66.76
62436;BME280;48480;50.252;18.848;2022-12-29T06:24:06;98488.25;;;3.53;66.60
62436;BME280;48480;50.252;18.848;2022-12-29T06:26:32;98478.50;;;3.54;66.64
62436;BME280;48480;50.252;18.848;2022-12-29T06:28:57;98478.80;;;3.53;66.63
62436;BME280;48480;50.252;18.848;2022-12-29T06:31:22;98478.66;;;3.51;66.69
62436;BME280;48480;50.252;18.848;2022-12-29T06:33:48;98481.58;;;3.52;66.68
62436;BME280;48480;50.252;18.848;2022-12-29T06:36:13;98466.62;;;3.48;66.68
62436;BME280;48480;50.252;18.848;2022-12-29T06:38:38;98481.14;;;3.56;66.57
62436;BME280;48480;50.252;18.848;2022-12-29T06:41:04;98484.73;;;3.57;66.55
62436;BME280;48480;50.252;18.848;2022-12-29T06:43:29;98483.04;;;3.59;66.55
62436;BME280;48480;50.252;18.848;2022-12-29T06:45:56;98476.77;;;3.60;66.55
62436;BME280;48480;50.252;18.848;2022-12-29T06:48:22;98477.73;;;3.63;66.46
62436;BME280;48480;50.252;18.848;2022-12-29T06:50:47;98478.26;;;3.65;66.48
62436;BME280;48480;50.252;18.848;2022-12-29T06:53:12;98480.37;;;3.67;66.53
62436;BME280;48480;50.252;18.848;2022-12-29T06:55:38;98476.05;;;3.70;66.43
62436;BME280;48480;50.252;18.848;2022-12-29T06:58:03;98478.28;;;3.74;66.43
62436;BME280;48480;50.252;18.848;2022-12-29T07:00:28;98472.76;;;3.77;66.22
62436;BME280;48480;50.252;18.848;2022-12-29T07:02:55;98479.59;;;3.80;66.13
62436;BME280;48480;50.252;18.848;2022-12-29T07:05:21;98478.95;;;3.83;66.19
62436;BME280;48480;50.252;18.848;2022-12-29T07:07:46;98475.64;;;3.87;66.15
62436;BME280;48480;50.252;18.848;2022-12-29T07:10:12;98478.17;;;3.88;66.01
62436;BME280;48480;50.252;18.848;2022-12-29T07:12:37;98475.52;;;3.90;65.98
62436;BME280;48480;50.252;18.848;2022-12-29T07:15:03;98477.91;;;3.93;65.95
62436;BME280;48480;50.252;18.848;2022-12-29T07:17:29;98478.59;;;3.96;66.03
62436;BME280;48480;50.252;18.848;2022-12-29T07:19:54;98485.74;;;3.98;65.99
62436;BME280;48480;50.252;18.848;2022-12-29T07:22:19;98485.69;;;4.00;65.86
62436;BME280;48480;50.252;18.848;2022-12-29T07:24:45;98491.77;;;4.05;65.84
62436;BME280;48480;50.252;18.848;2022-12-29T07:27:10;98495.91;;;4.08;65.63
62436;BME280;48480;50.252;18.848;2022-12-29T07:29:39;98498.55;;;4.13;65.57
62436;BME280;48480;50.252;18.848;2022-12-29T07:32:04;98505.10;;;4.18;65.44
62436;BME280;48480;50.252;18.848;2022-12-29T07:34:33;98506.84;;;4.21;65.40
62436;BME280;48480;50.252;18.848;2022-12-29T07:37:01;98516.98;;;4.23;65.51
62436;BME280;48480;50.252;18.848;2022-12-29T07:39:26;98518.84;;;4.25;65.65
62436;BME280;48480;50.252;18.848;2022-12-29T07:41:52;98520.36;;;4.27;65.51
62436;BME280;48480;50.252;18.848;2022-12-29T07:44:17;98513.80;;;4.32;65.39
62436;BME280;48480;50.252;18.848;2022-12-29T07:46:42;98512.09;;;4.35;65.07
62436;BME280;48480;50.252;18.848;2022-12-29T07:49:08;98514.00;;;4.36;65.05
62436;BME280;48480;50.252;18.848;2022-12-29T07:51:33;98514.90;;;4.37;65.02
62436;BME280;48480;50.252;18.848;2022-12-29T07:53:59;98507.57;;;4.38;64.79
62436;BME280;48480;50.252;18.848;2022-12-29T07:56:26;98501.02;;;4.38;64.72
62436;BME280;48480;50.252;18.848;2022-12-29T07:58:51;98479.36;;;4.27;64.67
62436;BME280;48480;50.252;18.848;2022-12-29T08:01:17;98493.16;;;4.41;64.59
62436;BME280;48480;50.252;18.848;2022-12-29T08:03:43;98488.65;;;4.42;64.67
62436;BME280;48480;50.252;18.848;2022-12-29T08:06:10;98490.87;;;4.43;64.87
62436;BME280;48480;50.252;18.848;2022-12-29T08:08:36;98493.50;;;4.45;64.92
62436;BME280;48480;50.252;18.848;2022-12-29T08:11:02;98496.03;;;4.49;64.86
62436;BME280;48480;50.252;18.848;2022-12-29T08:13:30;98493.98;;;4.54;64.83
62436;BME280;48480;50.252;18.848;2022-12-29T08:15:57;98489.65;;;4.60;64.63
62436;BME280;48480;50.252;18.848;2022-12-29T08:18:23;98488.79;;;4.62;64.38
62436;BME280;48480;50.252;18.848;2022-12-29T08:20:49;98491.81;;;4.64;64.20
62436;BME280;48480;50.252;18.848;2022-12-29T08:23:15;98496.46;;;4.67;64.28
62436;BME280;48480;50.252;18.848;2022-12-29T08:25:41;98497.02;;;4.70;64.27
62436;BME280;48480;50.252;18.848;2022-12-29T08:28:07;98494.45;;;4.77;64.20
62436;BME280;48480;50.252;18.848;2022-12-29T08:30:32;98503.44;;;4.83;64.10
62436;BME280;48480;50.252;18.848;2022-12-29T08:32:58;98501.77;;;4.88;63.95
62436;BME280;48480;50.252;18.848;2022-12-29T08:35:23;98499.13;;;4.92;63.79
62436;BME280;48480;50.252;18.848;2022-12-29T08:37:48;98502.97;;;4.97;63.63
62436;BME280;48480;50.252;18.848;2022-12-29T08:40:14;98504.35;;;5.04;63.64
62436;BME280;48480;50.252;18.848;2022-12-29T08:42:39;98504.43;;;5.14;63.41
62436;BME280;48480;50.252;18.848;2022-12-29T08:45:06;98505.34;;;5.28;63.17
62436;BME280;48480;50.252;18.848;2022-12-29T08:47:32;98503.60;;;5.49;63.10
62436;BME280;48480;50.252;18.848;2022-12-29T08:49:57;98502.17;;;5.76;62.64
62436;BME280;48480;50.252;18.848;2022-12-29T08:52:22;98502.27;;;6.04;62.21
62436;BME280;48480;50.252;18.848;2022-12-29T08:54:48;98505.65;;;6.37;61.94
62436;BME280;48480;50.252;18.848;2022-12-29T08:57:14;98508.60;;;6.73;61.29
62436;BME280;48480;50.252;18.848;2022-12-29T08:59:39;98522.88;;;7.14;60.55
62436;BME280;48480;50.252;18.848;2022-12-29T09:02:05;98513.80;;;7.56;60.01
62436;BME280;48480;50.252;18.848;2022-12-29T09:04:31;98505.59;;;7.96;59.14
62436;BME280;48480;50.252;18.848;2022-12-29T09:06:56;98509.17;;;8.32;58.27
62436;BME280;48480;50.252;18.848;2022-12-29T09:09:22;98505.19;;;8.67;57.44
62436;BME280;48480;50.252;18.848;2022-12-29T09:11:47;98502.89;;;8.95;56.63
62436;BME280;48480;50.252;18.848;2022-12-29T09:14:13;98503.04;;;9.22;56.12
62436;BME280;48480;50.252;18.848;2022-12-29T09:16:39;98508.08;;;9.48;55.31
62436;BME280;48480;50.252;18.848;2022-12-29T09:19:24;98513.30;;;9.72;54.72
62436;BME280;48480;50.252;18.848;2022-12-29T09:21:49;98520.02;;;9.94;54.17
62436;BME280;48480;50.252;18.848;2022-12-29T09:24:14;98516.18;;;10.14;53.71
62436;BME280;48480;50.252;18.848;2022-12-29T09:26:40;98508.23;;;10.34;52.34
62436;BME280;48480;50.252;18.848;2022-12-29T09:29:05;98502.00;;;10.38;51.68
62436;BME280;48480;50.252;18.848;2022-12-29T09:31:30;98498.55;;;10.24;51.60
62436;BME280;48480;50.252;18.848;2022-12-29T09:33:56;98488.45;;;10.07;50.92
62436;BME280;48480;50.252;18.848;2022-12-29T09:36:21;98491.11;;;9.84;51.82
62436;BME280;48480;50.252;18.848;2022-12-29T09:38:47;98494.15;;;9.60;52.26
62436;BME280;48480;50.252;18.848;2022-12-29T09:41:26;98494.61;;;9.34;52.20
62436;BME280;48480;50.252;18.848;2022-12-29T09:44:10;98496.91;;;9.20;52.91
62436;BME280;48480;50.252;18.848;2022-12-29T09:46:42;98499.98;;;9.09;52.85
62436;BME280;48480;50.252;18.848;2022-12-29T09:49:19;98502.88;;;8.97;53.11
62436;BME280;48480;50.252;18.848;2022-12-29T09:51:50;98503.85;;;8.87;53.56
62436;BME280;48480;50.252;18.848;2022-12-29T09:57:07;98501.67;;;8.60;54.23
62436;BME280;48480;50.252;18.848;2022-12-29T09:59:40;98503.58;;;8.42;54.47
62436;BME280;48480;50.252;18.848;2022-12-29T10:02:20;98498.42;;;8.25;54.93
62436;BME280;48480;50.252;18.848;2022-12-29T10:04:48;98494.80;;;8.27;55.37
62436;BME280;48480;50.252;18.848;2022-12-29T10:07:26;98491.79;;;8.35;55.19
62436;BME280;48480;50.252;18.848;2022-12-29T10:13:09;98478.77;;;8.34;55.10
62436;BME280;48480;50.252;18.848;2022-12-29T10:18:50;98482.66;;;8.39;55.33
62436;BME280;48480;50.252;18.848;2022-12-29T10:23:59;98469.53;;;8.57;55.04
62436;BME280;48480;50.252;18.848;2022-12-29T10:26:38;98470.29;;;8.59;55.03
62436;BME280;48480;50.252;18.848;2022-12-29T10:29:10;98464.80;;;8.68;55.13
62436;BME280;48480;50.252;18.848;2022-12-29T10:31:48;98463.35;;;8.75;55.11
62436;BME280;48480;50.252;18.848;2022-12-29T10:34:22;98463.25;;;8.82;54.90
62436;BME280;48480;50.252;18.848;2022-12-29T10:36:55;98459.84;;;8.84;54.99
62436;BME280;48480;50.252;18.848;2022-12-29T10:39:37;98453.46;;;8.87;55.26
62436;BME280;48480;50.252;18.848;2022-12-29T10:42:13;98450.70;;;8.86;55.21
62436;BME280;48480;50.252;18.848;2022-12-29T10:44:39;98443.98;;;8.82;55.14
62436;BME280;48480;50.252;18.848;2022-12-29T10:47:14;98444.55;;;8.77;55.31
62436;BME280;48480;50.252;18.848;2022-12-29T10:49:42;98450.77;;;8.69;55.38
62436;BME280;48480;50.252;18.848;2022-12-29T10:52:10;98453.32;;;8.60;55.76
62436;BME280;48480;50.252;18.848;2022-12-29T10:54:55;98452.14;;;8.53;55.79
62436;BME280;48480;50.252;18.848;2022-12-29T10:57:38;98462.40;;;8.46;56.05
62436;BME280;48480;50.252;18.848;2022-12-29T11:00:14;98464.31;;;8.37;56.27
62436;BME280;48480;50.252;18.848;2022-12-29T11:08:35;98438.89;;;8.14;56.43
62436;BME280;48480;50.252;18.848;2022-12-29T11:11:02;98446.17;;;8.08;56.79
62436;BME280;48480;50.252;18.848;2022-12-29T11:13:30;98449.00;;;8.05;57.01
62436;BME280;48480;50.252;18.848;2022-12-29T11:15:56;98451.54;;;8.04;57.11
62436;BME280;48480;50.252;18.848;2022-12-29T11:18:41;98453.17;;;8.05;57.36
62436;BME280;48480;50.252;18.848;2022-12-29T11:21:33;98455.88;;;8.09;57.21
62436;BME280;48480;50.252;18.848;2022-12-29T11:26:49;98454.33;;;8.19;57.30
62436;BME280;48480;50.252;18.848;2022-12-29T11:31:45;98457.14;;;8.23;57.40
62436;BME280;48480;50.252;18.848;2022-12-29T11:34:23;98462.08;;;8.27;57.31
62436;BME280;48480;50.252;18.848;2022-12-29T11:37:10;98462.98;;;8.30;57.23
62436;BME280;48480;50.252;18.848;2022-12-29T11:39:50;98459.22;;;8.31;57.07
62436;BME280;48480;50.252;18.848;2022-12-29T11:42:28;98452.14;;;8.30;57.20
62436;BME280;48480;50.252;18.848;2022-12-29T11:45:03;98450.06;;;8.27;57.31
62436;BME280;48480;50.252;18.848;2022-12-29T11:47:31;98455.71;;;8.25;57.32
62436;BME280;48480;50.252;18.848;2022-12-29T11:50:00;98448.17;;;8.24;57.50
62436;BME280;48480;50.252;18.848;2022-12-29T11:52:31;98450.05;;;8.25;57.56
62436;BME280;48480;50.252;18.848;2022-12-29T11:55:00;98447.94;;;8.26;57.75
62436;BME280;48480;50.252;18.848;2022-12-29T11:57:27;98444.54;;;8.28;57.94
62436;BME280;48480;50.252;18.848;2022-12-29T11:59:54;98445.92;;;8.30;57.78
62436;BME280;48480;50.252;18.848;2022-12-29T12:02:48;98449.21;;;8.34;57.82
62436;BME280;48480;50.252;18.848;2022-12-29T12:05:40;98451.50;;;8.39;58.05
62436;BME280;48480;50.252;18.848;2022-12-29T12:15:59;98449.66;;;8.61;57.33
62436;BME280;48480;50.252;18.848;2022-12-29T12:18:32;98445.44;;;8.59;57.32
62436;BME280;48480;50.252;18.848;2022-12-29T12:26:21;98453.34;;;8.54;57.56
62436;BME280;48480;50.252;18.848;2022-12-29T12:29:12;98448.45;;;8.53;57.69
62436;BME280;48480;50.252;18.848;2022-12-29T12:31:46;98442.36;;;8.50;57.67
62436;BME280;48480;50.252;18.848;2022-12-29T12:34:20;98431.86;;;8.44;58.06
62436;BME280;48480;50.252;18.848;2022-12-29T12:39:39;98406.91;;;8.35;59.34
62436;BME280;48480;50.252;18.848;2022-12-29T12:42:42;98414.86;;;8.31;59.53
62436;BME280;48480;50.252;18.848;2022-12-29T12:53:29;98394.91;;;7.99;59.80
62436;BME280;48480;50.252;18.848;2022-12-29T12:58:43;98431.18;;;7.96;60.24
62436;BME280;48480;50.252;18.848;2022-12-29T13:04:17;98420.61;;;8.01;60.17
62436;BME280;48480;50.252;18.848;2022-12-29T13:07:10;98415.98;;;8.08;60.11
62436;BME280;48480;50.252;18.848;2022-12-29T13:15:54;98415.34;;;8.18;59.51
62436;BME280;48480;50.252;18.848;2022-12-29T13:18:48;98416.10;;;8.20;59.80
62436;BME280;48480;50.252;18.848;2022-12-29T13:24:32;98413.91;;;8.37;59.61
62436;BME280;48480;50.252;18.848;2022-12-29T13:29:49;98408.05;;;8.54;59.24
62436;BME280;48480;50.252;18.848;2022-12-29T13:37:55;98409.46;;;8.65;59.11
62436;BME280;48480;50.252;18.848;2022-12-29T13:40:23;98402.02;;;8.66;59.27
62436;BME280;48480;50.252;18.848;2022-12-29T13:42:49;98406.38;;;8.64;59.24
62436;BME280;48480;50.252;18.848;2022-12-29T13:45:19;98401.94;;;8.60;59.39
62436;BME280;48480;50.252;18.848;2022-12-29T13:47:51;98416.17;;;8.66;59.32
62436;BME280;48480;50.252;18.848;2022-12-29T13:50:21;98416.44;;;8.67;59.44
62436;BME280;48480;50.252;18.848;2022-12-29T13:53:17;98415.45;;;8.67;59.51
62436;BME280;48480;50.252;18.848;2022-12-29T13:55:59;98411.20;;;8.66;59.47
62436;BME280;48480;50.252;18.848;2022-12-29T13:58:33;98411.36;;;8.66;59.47
62436;BME280;48480;50.252;18.848;2022-12-29T14:03:47;98418.27;;;8.63;59.70
62436;BME280;48480;50.252;18.848;2022-12-29T14:06:23;98415.82;;;8.63;59.86
62436;BME280;48480;50.252;18.848;2022-12-29T14:08:52;98412.97;;;8.62;59.87
62436;BME280;48480;50.252;18.848;2022-12-29T14:11:21;98415.49;;;8.58;59.92
62436;BME280;48480;50.252;18.848;2022-12-29T14:13:50;98414.84;;;8.55;60.11
62436;BME280;48480;50.252;18.848;2022-12-29T14:16:29;98420.02;;;8.50;60.30
62436;BME280;48480;50.252;18.848;2022-12-29T14:19:03;98417.98;;;8.45;60.46
62436;BME280;48480;50.252;18.848;2022-12-29T14:21:29;98408.40;;;8.40;60.70
62436;BME280;48480;50.252;18.848;2022-12-29T14:29:43;98414.33;;;8.28;61.09
62436;BME280;48480;50.252;18.848;2022-12-29T14:35:00;98409.02;;;8.21;61.55
62436;BME280;48480;50.252;18.848;2022-12-29T14:37:30;98409.02;;;8.18;61.71
62436;BME280;48480;50.252;18.848;2022-12-29T14:42:40;98399.81;;;8.12;61.92
62436;BME280;48480;50.252;18.848;2022-12-29T14:47:51;98396.96;;;8.07;62.16
62436;BME280;48480;50.252;18.848;2022-12-29T14:58:12;98407.65;;;8.00;62.89
62436;BME280;48480;50.252;18.848;2022-12-29T15:00:39;98402.89;;;7.98;63.12
62436;BME280;48480;50.252;18.848;2022-12-29T15:03:07;98401.70;;;7.98;63.16
62436;BME280;48480;50.252;18.848;2022-12-29T15:05:43;98408.69;;;7.96;63.19
62436;BME280;48480;50.252;18.848;2022-12-29T15:08:13;98415.80;;;7.96;63.34
62436;BME280;48480;50.252;18.848;2022-12-29T15:10:49;98418.89;;;7.96;63.45
62436;BME280;48480;50.252;18.848;2022-12-29T15:13:24;98430.00;;;7.97;63.58
62436;BME280;48480;50.252;18.848;2022-12-29T15:15:50;98422.80;;;7.96;63.61
62436;BME280;48480;50.252;18.848;2022-12-29T15:18:28;98417.75;;;7.95;63.65